sensor_id;sensor_type;location;lat;lon;timestamp;P1;durP1;ratioP1;P2;durP2;ratioP2
33413;SDS011;60055;41.884;12.534;2023-07-31T00:00:30;13.63;;;5.25;;
33413;SDS011;60055;41.884;12.534;2023-07-31T00:02:56;15.25;;;5.28;;
33413;SDS011;60055;41.884;12.534;2023-07-31T00:05:21;19.25;;;6.85;;
33413;SDS011;60055;41.884;12.534;2023-07-31T00:07:46;18.45;;;7.50;;
33413;SDS011;60055;41.884;12.534;2023-07-31T00:10:12;16.02;;;7.10;;
33413;SDS011;60055;41.884;12.534;2023-07-31T00:12:38;14.88;;;7.30;;
33413;SDS011;60055;41.884;12.534;2023-07-31T00:15:05;18.88;;;8.40;;
33413;SDS011;60055;41.884;12.534;2023-07-31T00:17:31;20.35;;;8.77;;
33413;SDS011;60055;41.884;12.534;2023-07-31T00:19:57;20.27;;;8.10;;
33413;SDS011;60055;41.884;12.534;2023-07-31T00:22:22;15.57;;;7.97;;
33413;SDS011;60055;41.884;12.534;2023-07-31T00:24:48;19.42;;;8.80;;
33413;SDS011;60055;41.884;12.534;2023-07-31T00:27:13;17.38;;;8.23;;
33413;SDS011;60055;41.884;12.534;2023-07-31T00:29:38;17.77;;;8.40;;
33413;SDS011;60055;41.884;12.534;2023-07-31T00:32:04;20.33;;;8.52;;
33413;SDS011;60055;41.884;12.534;2023-07-31T00:34:30;17.90;;;8.30;;
33413;SDS011;60055;41.884;12.534;2023-07-31T00:36:55;16.35;;;8.38;;
33413;SDS011;60055;41.884;12.534;2023-07-31T00:39:21;18.60;;;7.95;;
33413;SDS011;60055;41.884;12.534;2023-07-31T00:41:46;17.70;;;7.97;;
33413;SDS011;60055;41.884;12.534;2023-07-31T00:44:12;15.45;;;7.63;;
33413;SDS011;60055;41.884;12.534;2023-07-31T00:46:37;17.85;;;7.80;;
33413;SDS011;60055;41.884;12.534;2023-07-31T00:49:03;16.13;;;7.70;;
33413;SDS011;60055;41.884;12.534;2023-07-31T00:51:29;22.45;;;7.88;;
33413;SDS011;60055;41.884;12.534;2023-07-31T00:53:55;18.77;;;7.35;;
33413;SDS011;60055;41.884;12.534;2023-07-31T00:56:21;16.55;;;7.63;;
33413;SDS011;60055;41.884;12.534;2023-07-31T00:58:48;17.58;;;7.68;;
33413;SDS011;60055;41.884;12.534;2023-07-31T01:01:13;16.73;;;7.82;;
33413;SDS011;60055;41.884;12.534;2023-07-31T01:03:39;17.17;;;7.18;;
33413;SDS011;60055;41.884;12.534;2023-07-31T01:09:00;19.98;;;7.70;;
33413;SDS011;60055;41.884;12.534;2023-07-31T01:11:57;16.17;;;7.55;;
33413;SDS011;60055;41.884;12.534;2023-07-31T01:14:28;16.00;;;7.38;;
33413;SDS011;60055;41.884;12.534;2023-07-31T01:16:54;17.50;;;7.80;;
33413;SDS011;60055;41.884;12.534;2023-07-31T01:19:24;15.73;;;7.68;;
33413;SDS011;60055;41.884;12.534;2023-07-31T01:27:34;19.63;;;8.45;;
33413;SDS011;60055;41.884;12.534;2023-07-31T01:30:10;17.02;;;7.72;;
33413;SDS011;60055;41.884;12.534;2023-07-31T01:32:43;17.67;;;6.88;;
33413;SDS011;60055;41.884;12.534;2023-07-31T01:35:12;18.85;;;6.85;;
33413;SDS011;60055;41.884;12.534;2023-07-31T01:37:37;14.30;;;7.05;;
33413;SDS011;60055;41.884;12.534;2023-07-31T01:40:04;15.23;;;6.63;;
33413;SDS011;60055;41.884;12.534;2023-07-31T01:42:30;15.30;;;6.28;;
33413;SDS011;60055;41.884;12.534;2023-07-31T01:44:55;17.65;;;6.88;;
33413;SDS011;60055;41.884;12.534;2023-07-31T01:47:21;14.93;;;6.57;;
33413;SDS011;60055;41.884;12.534;2023-07-31T01:49:46;12.95;;;6.78;;
33413;SDS011;60055;41.884;12.534;2023-07-31T01:52:12;15.20;;;6.90;;
33413;SDS011;60055;41.884;12.534;2023-07-31T01:54:37;14.50;;;6.32;;
33413;SDS011;60055;41.884;12.534;2023-07-31T01:57:03;12.75;;;6.35;;
33413;SDS011;60055;41.884;12.534;2023-07-31T01:59:28;13.07;;;6.43;;
33413;SDS011;60055;41.884;12.534;2023-07-31T02:01:54;13.20;;;6.65;;
33413;SDS011;60055;41.884;12.534;2023-07-31T02:04:19;16.23;;;6.85;;
33413;SDS011;60055;41.884;12.534;2023-07-31T02:06:44;12.27;;;6.13;;
33413;SDS011;60055;41.884;12.534;2023-07-31T02:09:10;13.25;;;6.10;;
33413;SDS011;60055;41.884;12.534;2023-07-31T02:11:35;15.43;;;6.13;;
33413;SDS011;60055;41.884;12.534;2023-07-31T02:14:01;14.70;;;5.68;;
33413;SDS011;60055;41.884;12.534;2023-07-31T02:16:26;13.05;;;5.53;;
33413;SDS011;60055;41.884;12.534;2023-07-31T02:18:51;14.77;;;6.97;;
33413;SDS011;60055;41.884;12.534;2023-07-31T02:21:17;12.27;;;5.90;;
33413;SDS011;60055;41.884;12.534;2023-07-31T02:23:42;9.55;;;5.82;;
33413;SDS011;60055;41.884;12.534;2023-07-31T02:26:08;13.55;;;5.82;;
33413;SDS011;60055;41.884;12.534;2023-07-31T02:28:33;16.25;;;6.13;;
33413;SDS011;60055;41.884;12.534;2023-07-31T02:30:59;14.23;;;5.90;;
33413;SDS011;60055;41.884;12.534;2023-07-31T02:33:24;11.23;;;5.78;;
33413;SDS011;60055;41.884;12.534;2023-07-31T02:35:50;12.20;;;5.38;;
33413;SDS011;60055;41.884;12.534;2023-07-31T02:38:15;13.55;;;5.78;;
33413;SDS011;60055;41.884;12.534;2023-07-31T02:40:40;11.90;;;5.45;;
33413;SDS011;60055;41.884;12.534;2023-07-31T02:43:06;11.70;;;5.00;;
33413;SDS011;60055;41.884;12.534;2023-07-31T02:45:32;11.63;;;5.40;;
33413;SDS011;60055;41.884;12.534;2023-07-31T02:47:57;9.63;;;5.10;;
33413;SDS011;60055;41.884;12.534;2023-07-31T02:50:23;11.32;;;5.78;;
33413;SDS011;60055;41.884;12.534;2023-07-31T02:52:48;9.18;;;5.55;;
33413;SDS011;60055;41.884;12.534;2023-07-31T02:55:14;12.55;;;5.63;;
33413;SDS011;60055;41.884;12.534;2023-07-31T02:57:39;10.15;;;5.57;;
33413;SDS011;60055;41.884;12.534;2023-07-31T03:00:05;8.77;;;5.05;;
33413;SDS011;60055;41.884;12.534;2023-07-31T03:02:31;12.43;;;5.45;;
33413;SDS011;60055;41.884;12.534;2023-07-31T03:04:57;9.18;;;4.75;;
33413;SDS011;60055;41.884;12.534;2023-07-31T03:07:22;11.63;;;4.93;;
33413;SDS011;60055;41.884;12.534;2023-07-31T03:09:48;9.70;;;5.05;;
33413;SDS011;60055;41.884;12.534;2023-07-31T03:12:13;8.55;;;4.60;;
33413;SDS011;60055;41.884;12.534;2023-07-31T03:14:39;12.55;;;4.78;;
33413;SDS011;60055;41.884;12.534;2023-07-31T03:17:04;10.15;;;4.97;;
33413;SDS011;60055;41.884;12.534;2023-07-31T03:19:30;11.73;;;5.20;;
33413;SDS011;60055;41.884;12.534;2023-07-31T03:21:57;10.27;;;5.00;;
33413;SDS011;60055;41.884;12.534;2023-07-31T03:24:22;12.10;;;4.85;;
33413;SDS011;60055;41.884;12.534;2023-07-31T03:26:47;13.90;;;5.43;;
33413;SDS011;60055;41.884;12.534;2023-07-31T03:29:13;13.85;;;5.00;;
33413;SDS011;60055;41.884;12.534;2023-07-31T03:31:38;12.95;;;5.18;;
33413;SDS011;60055;41.884;12.534;2023-07-31T03:34:04;11.07;;;5.07;;
33413;SDS011;60055;41.884;12.534;2023-07-31T03:36:29;10.75;;;5.07;;
33413;SDS011;60055;41.884;12.534;2023-07-31T03:38:55;10.45;;;5.47;;
33413;SDS011;60055;41.884;12.534;2023-07-31T03:41:20;13.88;;;5.60;;
33413;SDS011;60055;41.884;12.534;2023-07-31T03:43:47;14.63;;;5.82;;
33413;SDS011;60055;41.884;12.534;2023-07-31T03:46:16;13.52;;;5.90;;
33413;SDS011;60055;41.884;12.534;2023-07-31T03:48:41;14.55;;;5.60;;
33413;SDS011;60055;41.884;12.534;2023-07-31T03:51:07;10.68;;;5.45;;
33413;SDS011;60055;41.884;12.534;2023-07-31T03:53:32;9.13;;;5.15;;
33413;SDS011;60055;41.884;12.534;2023-07-31T03:55:58;10.45;;;5.43;;
33413;SDS011;60055;41.884;12.534;2023-07-31T03:58:23;12.48;;;5.90;;
33413;SDS011;60055;41.884;12.534;2023-07-31T04:00:48;10.88;;;5.10;;
33413;SDS011;60055;41.884;12.534;2023-07-31T04:03:14;13.10;;;5.28;;
33413;SDS011;60055;41.884;12.534;2023-07-31T04:05:39;12.85;;;5.82;;
33413;SDS011;60055;41.884;12.534;2023-07-31T04:08:05;10.45;;;5.68;;
33413;SDS011;60055;41.884;12.534;2023-07-31T04:10:30;14.27;;;5.78;;
33413;SDS011;60055;41.884;12.534;2023-07-31T04:12:58;11.43;;;6.30;;
33413;SDS011;60055;41.884;12.534;2023-07-31T04:15:23;12.95;;;5.93;;
33413;SDS011;60055;41.884;12.534;2023-07-31T04:17:49;11.45;;;5.53;;
33413;SDS011;60055;41.884;12.534;2023-07-31T04:20:14;14.55;;;5.40;;
33413;SDS011;60055;41.884;12.534;2023-07-31T04:22:40;11.57;;;5.43;;
33413;SDS011;60055;41.884;12.534;2023-07-31T04:25:05;12.00;;;5.03;;
33413;SDS011;60055;41.884;12.534;2023-07-31T04:27:31;12.90;;;5.20;;
33413;SDS011;60055;41.884;12.534;2023-07-31T04:29:56;11.25;;;4.88;;
33413;SDS011;60055;41.884;12.534;2023-07-31T04:32:21;12.13;;;4.97;;
33413;SDS011;60055;41.884;12.534;2023-07-31T04:34:47;10.30;;;4.90;;
33413;SDS011;60055;41.884;12.534;2023-07-31T04:37:12;9.38;;;4.60;;
33413;SDS011;60055;41.884;12.534;2023-07-31T04:39:39;11.07;;;4.85;;
33413;SDS011;60055;41.884;12.534;2023-07-31T04:42:04;16.80;;;4.70;;
33413;SDS011;60055;41.884;12.534;2023-07-31T04:44:30;13.98;;;5.07;;
33413;SDS011;60055;41.884;12.534;2023-07-31T04:46:55;8.15;;;4.60;;
33413;SDS011;60055;41.884;12.534;2023-07-31T04:49:21;15.00;;;4.47;;
33413;SDS011;60055;41.884;12.534;2023-07-31T04:51:47;12.65;;;5.10;;
33413;SDS011;60055;41.884;12.534;2023-07-31T04:54:12;13.77;;;4.60;;
33413;SDS011;60055;41.884;12.534;2023-07-31T04:56:40;18.45;;;5.03;;
33413;SDS011;60055;41.884;12.534;2023-07-31T04:59:06;12.52;;;4.88;;
33413;SDS011;60055;41.884;12.534;2023-07-31T05:01:31;8.77;;;4.72;;
33413;SDS011;60055;41.884;12.534;2023-07-31T05:03:57;14.20;;;4.95;;
33413;SDS011;60055;41.884;12.534;2023-07-31T05:06:22;10.65;;;5.35;;
33413;SDS011;60055;41.884;12.534;2023-07-31T05:08:47;14.52;;;4.80;;
33413;SDS011;60055;41.884;12.534;2023-07-31T05:11:13;10.48;;;4.60;;
33413;SDS011;60055;41.884;12.534;2023-07-31T05:13:38;11.60;;;4.75;;
33413;SDS011;60055;41.884;12.534;2023-07-31T05:16:04;10.63;;;4.30;;
33413;SDS011;60055;41.884;12.534;2023-07-31T05:18:29;8.82;;;4.07;;
33413;SDS011;60055;41.884;12.534;2023-07-31T05:20:55;11.27;;;4.38;;
33413;SDS011;60055;41.884;12.534;2023-07-31T05:23:20;10.80;;;4.80;;
33413;SDS011;60055;41.884;12.534;2023-07-31T05:25:45;12.25;;;4.70;;
33413;SDS011;60055;41.884;12.534;2023-07-31T05:28:12;11.30;;;4.35;;
33413;SDS011;60055;41.884;12.534;2023-07-31T05:30:37;12.68;;;4.32;;
33413;SDS011;60055;41.884;12.534;2023-07-31T05:33:03;10.63;;;4.35;;
33413;SDS011;60055;41.884;12.534;2023-07-31T05:35:28;10.88;;;4.53;;
33413;SDS011;60055;41.884;12.534;2023-07-31T05:37:54;10.88;;;4.50;;
33413;SDS011;60055;41.884;12.534;2023-07-31T05:40:19;10.85;;;4.20;;
33413;SDS011;60055;41.884;12.534;2023-07-31T05:42:44;9.93;;;4.57;;
33413;SDS011;60055;41.884;12.534;2023-07-31T05:45:10;7.70;;;4.05;;
33413;SDS011;60055;41.884;12.534;2023-07-31T05:47:35;10.73;;;4.60;;
33413;SDS011;60055;41.884;12.534;2023-07-31T05:50:01;11.57;;;4.22;;
33413;SDS011;60055;41.884;12.534;2023-07-31T05:52:26;11.43;;;4.70;;
33413;SDS011;60055;41.884;12.534;2023-07-31T05:54:54;8.30;;;4.30;;
33413;SDS011;60055;41.884;12.534;2023-07-31T05:57:19;10.40;;;4.38;;
33413;SDS011;60055;41.884;12.534;2023-07-31T05:59:45;9.75;;;4.78;;
33413;SDS011;60055;41.884;12.534;2023-07-31T06:02:10;10.38;;;4.40;;
33413;SDS011;60055;41.884;12.534;2023-07-31T06:04:36;8.80;;;4.13;;
33413;SDS011;60055;41.884;12.534;2023-07-31T06:07:02;9.48;;;4.45;;
33413;SDS011;60055;41.884;12.534;2023-07-31T06:09:28;10.80;;;4.00;;
33413;SDS011;60055;41.884;12.534;2023-07-31T06:11:54;9.93;;;3.83;;
33413;SDS011;60055;41.884;12.534;2023-07-31T06:14:19;13.80;;;5.15;;
33413;SDS011;60055;41.884;12.534;2023-07-31T06:16:44;11.00;;;4.60;;
33413;SDS011;60055;41.884;12.534;2023-07-31T06:19:10;10.55;;;4.05;;
33413;SDS011;60055;41.884;12.534;2023-07-31T06:21:36;13.48;;;5.07;;
33413;SDS011;60055;41.884;12.534;2023-07-31T06:24:08;13.55;;;4.32;;
33413;SDS011;60055;41.884;12.534;2023-07-31T06:26:33;10.80;;;4.47;;
33413;SDS011;60055;41.884;12.534;2023-07-31T06:28:59;13.15;;;4.10;;
33413;SDS011;60055;41.884;12.534;2023-07-31T06:31:24;12.43;;;4.30;;
33413;SDS011;60055;41.884;12.534;2023-07-31T06:33:51;12.18;;;5.07;;
33413;SDS011;60055;41.884;12.534;2023-07-31T06:36:17;12.57;;;4.28;;
33413;SDS011;60055;41.884;12.534;2023-07-31T06:38:42;13.00;;;4.80;;
33413;SDS011;60055;41.884;12.534;2023-07-31T06:41:07;12.20;;;5.20;;
33413;SDS011;60055;41.884;12.534;2023-07-31T06:43:33;8.75;;;4.15;;
33413;SDS011;60055;41.884;12.534;2023-07-31T06:46:00;9.60;;;4.45;;
33413;SDS011;60055;41.884;12.534;2023-07-31T06:48:30;11.60;;;4.57;;
33413;SDS011;60055;41.884;12.534;2023-07-31T06:50:56;13.80;;;4.88;;
33413;SDS011;60055;41.884;12.534;2023-07-31T06:53:21;12.68;;;3.90;;
33413;SDS011;60055;41.884;12.534;2023-07-31T06:55:46;13.40;;;4.50;;
33413;SDS011;60055;41.884;12.534;2023-07-31T06:58:13;14.52;;;4.57;;
33413;SDS011;60055;41.884;12.534;2023-07-31T07:00:41;10.80;;;4.72;;
33413;SDS011;60055;41.884;12.534;2023-07-31T07:03:07;13.60;;;4.55;;
33413;SDS011;60055;41.884;12.534;2023-07-31T07:05:32;8.50;;;4.32;;
33413;SDS011;60055;41.884;12.534;2023-07-31T07:07:58;18.15;;;4.55;;
33413;SDS011;60055;41.884;12.534;2023-07-31T07:10:23;10.10;;;4.03;;
33413;SDS011;60055;41.884;12.534;2023-07-31T07:12:49;12.75;;;4.30;;
33413;SDS011;60055;41.884;12.534;2023-07-31T07:15:15;14.05;;;4.68;;
33413;SDS011;60055;41.884;12.534;2023-07-31T07:17:40;12.07;;;4.40;;
33413;SDS011;60055;41.884;12.534;2023-07-31T07:20:06;16.00;;;4.28;;
33413;SDS011;60055;41.884;12.534;2023-07-31T07:22:32;13.15;;;4.10;;
33413;SDS011;60055;41.884;12.534;2023-07-31T07:24:58;9.73;;;3.90;;
33413;SDS011;60055;41.884;12.534;2023-07-31T07:27:23;9.68;;;3.78;;
33413;SDS011;60055;41.884;12.534;2023-07-31T07:29:51;11.65;;;3.80;;
33413;SDS011;60055;41.884;12.534;2023-07-31T07:32:20;8.23;;;3.67;;
33413;SDS011;60055;41.884;12.534;2023-07-31T07:34:46;12.18;;;3.90;;
33413;SDS011;60055;41.884;12.534;2023-07-31T07:37:12;9.00;;;3.60;;
33413;SDS011;60055;41.884;12.534;2023-07-31T07:39:38;8.38;;;3.40;;
33413;SDS011;60055;41.884;12.534;2023-07-31T07:42:03;10.63;;;3.75;;
33413;SDS011;60055;41.884;12.534;2023-07-31T07:44:29;10.77;;;3.53;;
33413;SDS011;60055;41.884;12.534;2023-07-31T07:46:54;8.60;;;3.25;;
33413;SDS011;60055;41.884;12.534;2023-07-31T07:49:20;11.20;;;5.15;;
33413;SDS011;60055;41.884;12.534;2023-07-31T07:51:47;20.20;;;3.90;;
33413;SDS011;60055;41.884;12.534;2023-07-31T07:54:14;7.90;;;3.47;;
33413;SDS011;60055;41.884;12.534;2023-07-31T07:56:39;8.00;;;3.28;;
33413;SDS011;60055;41.884;12.534;2023-07-31T07:59:05;7.93;;;3.17;;
33413;SDS011;60055;41.884;12.534;2023-07-31T08:01:30;14.50;;;3.75;;
33413;SDS011;60055;41.884;12.534;2023-07-31T08:03:56;11.82;;;3.58;;
33413;SDS011;60055;41.884;12.534;2023-07-31T08:06:21;11.32;;;3.58;;
33413;SDS011;60055;41.884;12.534;2023-07-31T08:08:47;10.38;;;3.40;;
33413;SDS011;60055;41.884;12.534;2023-07-31T08:11:13;9.65;;;3.83;;
33413;SDS011;60055;41.884;12.534;2023-07-31T08:13:38;11.35;;;3.30;;
33413;SDS011;60055;41.884;12.534;2023-07-31T08:16:04;10.48;;;3.58;;
33413;SDS011;60055;41.884;12.534;2023-07-31T08:18:30;7.43;;;3.40;;
33413;SDS011;60055;41.884;12.534;2023-07-31T08:20:57;8.48;;;3.58;;
33413;SDS011;60055;41.884;12.534;2023-07-31T08:23:22;8.20;;;2.88;;
33413;SDS011;60055;41.884;12.534;2023-07-31T08:25:47;10.55;;;3.22;;
33413;SDS011;60055;41.884;12.534;2023-07-31T08:28:14;7.45;;;3.00;;
33413;SDS011;60055;41.884;12.534;2023-07-31T08:30:40;9.05;;;3.60;;
33413;SDS011;60055;41.884;12.534;2023-07-31T08:33:06;8.80;;;3.28;;
33413;SDS011;60055;41.884;12.534;2023-07-31T08:35:32;6.32;;;2.70;;
33413;SDS011;60055;41.884;12.534;2023-07-31T08:37:57;7.88;;;3.13;;
33413;SDS011;60055;41.884;12.534;2023-07-31T08:40:22;7.30;;;2.75;;
33413;SDS011;60055;41.884;12.534;2023-07-31T08:42:49;7.57;;;2.50;;
33413;SDS011;60055;41.884;12.534;2023-07-31T08:45:17;6.03;;;2.60;;
33413;SDS011;60055;41.884;12.534;2023-07-31T08:47:44;7.40;;;2.70;;
33413;SDS011;60055;41.884;12.534;2023-07-31T08:50:12;6.63;;;2.45;;
33413;SDS011;60055;41.884;12.534;2023-07-31T08:52:39;7.70;;;2.78;;
33413;SDS011;60055;41.884;12.534;2023-07-31T08:55:05;7.20;;;2.90;;
33413;SDS011;60055;41.884;12.534;2023-07-31T08:57:31;7.72;;;2.72;;
33413;SDS011;60055;41.884;12.534;2023-07-31T08:59:59;6.85;;;2.60;;
33413;SDS011;60055;41.884;12.534;2023-07-31T09:02:26;7.05;;;2.70;;
33413;SDS011;60055;41.884;12.534;2023-07-31T09:05:02;4.97;;;2.45;;
33413;SDS011;60055;41.884;12.534;2023-07-31T09:07:30;8.75;;;3.90;;
33413;SDS011;60055;41.884;12.534;2023-07-31T09:09:58;8.55;;;3.20;;
33413;SDS011;60055;41.884;12.534;2023-07-31T09:12:25;11.05;;;2.80;;
33413;SDS011;60055;41.884;12.534;2023-07-31T09:14:50;4.13;;;2.40;;
33413;SDS011;60055;41.884;12.534;2023-07-31T09:17:16;6.45;;;2.40;;
33413;SDS011;60055;41.884;12.534;2023-07-31T09:22:43;8.10;;;2.65;;
33413;SDS011;60055;41.884;12.534;2023-07-31T09:25:19;6.20;;;2.50;;
33413;SDS011;60055;41.884;12.534;2023-07-31T09:30:15;7.82;;;2.83;;
33413;SDS011;60055;41.884;12.534;2023-07-31T09:32:43;7.05;;;2.85;;
33413;SDS011;60055;41.884;12.534;2023-07-31T09:35:13;10.48;;;2.60;;
33413;SDS011;60055;41.884;12.534;2023-07-31T09:37:49;4.68;;;2.55;;
33413;SDS011;60055;41.884;12.534;2023-07-31T09:43:04;8.15;;;2.58;;
33413;SDS011;60055;41.884;12.534;2023-07-31T09:45:35;7.63;;;2.47;;
33413;SDS011;60055;41.884;12.534;2023-07-31T09:48:02;7.68;;;2.55;;
33413;SDS011;60055;41.884;12.534;2023-07-31T09:50:28;5.38;;;2.35;;
33413;SDS011;60055;41.884;12.534;2023-07-31T09:52:54;8.13;;;2.50;;
33413;SDS011;60055;41.884;12.534;2023-07-31T09:55:20;5.72;;;2.40;;
33413;SDS011;60055;41.884;12.534;2023-07-31T09:57:46;5.07;;;2.78;;
33413;SDS011;60055;41.884;12.534;2023-07-31T10:00:13;7.88;;;2.63;;
33413;SDS011;60055;41.884;12.534;2023-07-31T10:02:40;4.82;;;2.20;;
33413;SDS011;60055;41.884;12.534;2023-07-31T10:05:06;3.72;;;2.40;;
33413;SDS011;60055;41.884;12.534;2023-07-31T10:07:38;4.10;;;2.22;;
33413;SDS011;60055;41.884;12.534;2023-07-31T10:10:07;6.63;;;2.25;;
33413;SDS011;60055;41.884;12.534;2023-07-31T10:12:34;4.50;;;2.38;;
33413;SDS011;60055;41.884;12.534;2023-07-31T10:15:01;6.30;;;2.47;;
33413;SDS011;60055;41.884;12.534;2023-07-31T10:17:27;5.95;;;2.70;;
33413;SDS011;60055;41.884;12.534;2023-07-31T10:19:54;7.80;;;2.42;;
33413;SDS011;60055;41.884;12.534;2023-07-31T10:22:22;3.80;;;2.50;;
33413;SDS011;60055;41.884;12.534;2023-07-31T10:24:50;4.68;;;2.17;;
33413;SDS011;60055;41.884;12.534;2023-07-31T10:27:16;7.68;;;2.40;;
33413;SDS011;60055;41.884;12.534;2023-07-31T10:29:41;5.75;;;2.60;;
33413;SDS011;60055;41.884;12.534;2023-07-31T10:32:09;5.20;;;2.28;;
33413;SDS011;60055;41.884;12.534;2023-07-31T10:34:36;6.45;;;2.40;;
33413;SDS011;60055;41.884;12.534;2023-07-31T10:37:23;5.45;;;2.53;;
33413;SDS011;60055;41.884;12.534;2023-07-31T10:42:49;5.45;;;2.42;;
33413;SDS011;60055;41.884;12.534;2023-07-31T10:45:26;5.65;;;2.15;;
33413;SDS011;60055;41.884;12.534;2023-07-31T10:48:01;6.47;;;2.75;;
33413;SDS011;60055;41.884;12.534;2023-07-31T10:50:27;3.47;;;2.53;;
33413;SDS011;60055;41.884;12.534;2023-07-31T10:52:54;4.70;;;2.80;;
33413;SDS011;60055;41.884;12.534;2023-07-31T10:58:18;8.65;;;3.15;;
33413;SDS011;60055;41.884;12.534;2023-07-31T11:00:43;6.72;;;2.70;;
33413;SDS011;60055;41.884;12.534;2023-07-31T11:03:10;6.55;;;2.38;;
33413;SDS011;60055;41.884;12.534;2023-07-31T11:08:24;5.30;;;2.13;;
33413;SDS011;60055;41.884;12.534;2023-07-31T11:15:54;5.47;;;2.50;;
33413;SDS011;60055;41.884;12.534;2023-07-31T11:18:19;8.70;;;2.42;;
33413;SDS011;60055;41.884;12.534;2023-07-31T11:20:45;3.78;;;2.53;;
33413;SDS011;60055;41.884;12.534;2023-07-31T11:23:10;9.93;;;2.45;;
33413;SDS011;60055;41.884;12.534;2023-07-31T11:25:37;5.03;;;2.30;;
33413;SDS011;60055;41.884;12.534;2023-07-31T11:28:08;5.63;;;2.50;;
33413;SDS011;60055;41.884;12.534;2023-07-31T11:30:35;7.03;;;2.40;;
33413;SDS011;60055;41.884;12.534;2023-07-31T11:33:01;7.18;;;2.40;;
33413;SDS011;60055;41.884;12.534;2023-07-31T11:35:34;5.10;;;2.70;;
33413;SDS011;60055;41.884;12.534;2023-07-31T11:38:01;5.03;;;2.40;;
33413;SDS011;60055;41.884;12.534;2023-07-31T11:40:27;5.35;;;2.58;;
33413;SDS011;60055;41.884;12.534;2023-07-31T11:42:58;5.22;;;2.53;;
33413;SDS011;60055;41.884;12.534;2023-07-31T11:45:28;7.20;;;2.75;;
33413;SDS011;60055;41.884;12.534;2023-07-31T11:47:55;6.88;;;2.60;;
33413;SDS011;60055;41.884;12.534;2023-07-31T11:50:22;6.35;;;2.42;;
33413;SDS011;60055;41.884;12.534;2023-07-31T11:52:50;4.18;;;2.50;;
33413;SDS011;60055;41.884;12.534;2023-07-31T11:55:19;4.60;;;2.40;;
33413;SDS011;60055;41.884;12.534;2023-07-31T11:57:45;4.93;;;2.40;;
33413;SDS011;60055;41.884;12.534;2023-07-31T12:00:12;3.55;;;2.30;;
33413;SDS011;60055;41.884;12.534;2023-07-31T12:02:39;4.88;;;2.25;;
33413;SDS011;60055;41.884;12.534;2023-07-31T12:05:06;3.03;;;2.58;;
33413;SDS011;60055;41.884;12.534;2023-07-31T12:17:57;6.82;;;2.60;;
33413;SDS011;60055;41.884;12.534;2023-07-31T12:20:22;6.90;;;2.63;;
33413;SDS011;60055;41.884;12.534;2023-07-31T12:22:47;17.00;;;3.58;;
33413;SDS011;60055;41.884;12.534;2023-07-31T12:25:16;8.20;;;3.13;;
33413;SDS011;60055;41.884;12.534;2023-07-31T12:27:44;9.88;;;3.33;;
33413;SDS011;60055;41.884;12.534;2023-07-31T12:32:55;11.30;;;3.58;;
33413;SDS011;60055;41.884;12.534;2023-07-31T12:35:20;13.73;;;3.38;;
33413;SDS011;60055;41.884;12.534;2023-07-31T12:37:46;14.20;;;3.70;;
33413;SDS011;60055;41.884;12.534;2023-07-31T12:40:11;13.95;;;3.58;;
33413;SDS011;60055;41.884;12.534;2023-07-31T12:42:37;11.55;;;3.72;;
33413;SDS011;60055;41.884;12.534;2023-07-31T12:45:03;13.30;;;3.67;;
33413;SDS011;60055;41.884;12.534;2023-07-31T12:47:29;11.23;;;3.58;;
33413;SDS011;60055;41.884;12.534;2023-07-31T12:49:54;11.75;;;3.30;;
33413;SDS011;60055;41.884;12.534;2023-07-31T12:52:20;7.80;;;3.22;;
33413;SDS011;60055;41.884;12.534;2023-07-31T12:54:45;10.02;;;3.55;;
33413;SDS011;60055;41.884;12.534;2023-07-31T12:57:11;13.18;;;3.70;;
33413;SDS011;60055;41.884;12.534;2023-07-31T12:59:36;11.48;;;3.90;;
33413;SDS011;60055;41.884;12.534;2023-07-31T13:02:02;10.27;;;3.45;;
33413;SDS011;60055;41.884;12.534;2023-07-31T13:04:27;14.15;;;3.72;;
33413;SDS011;60055;41.884;12.534;2023-07-31T13:06:53;10.43;;;3.58;;
33413;SDS011;60055;41.884;12.534;2023-07-31T13:09:18;9.27;;;3.72;;
33413;SDS011;60055;41.884;12.534;2023-07-31T13:11:43;12.60;;;3.38;;
33413;SDS011;60055;41.884;12.534;2023-07-31T13:14:09;9.45;;;3.75;;
33413;SDS011;60055;41.884;12.534;2023-07-31T13:16:34;10.70;;;3.00;;
33413;SDS011;60055;41.884;12.534;2023-07-31T13:19:00;10.93;;;3.55;;
33413;SDS011;60055;41.884;12.534;2023-07-31T13:21:25;9.60;;;3.58;;
33413;SDS011;60055;41.884;12.534;2023-07-31T13:23:50;10.23;;;3.67;;
33413;SDS011;60055;41.884;12.534;2023-07-31T13:26:16;9.65;;;3.25;;
33413;SDS011;60055;41.884;12.534;2023-07-31T13:28:41;12.68;;;3.28;;
33413;SDS011;60055;41.884;12.534;2023-07-31T13:31:06;10.95;;;3.33;;
33413;SDS011;60055;41.884;12.534;2023-07-31T13:33:32;11.23;;;3.28;;
33413;SDS011;60055;41.884;12.534;2023-07-31T13:35:57;9.95;;;4.00;;
33413;SDS011;60055;41.884;12.534;2023-07-31T13:38:23;13.20;;;4.72;;
33413;SDS011;60055;41.884;12.534;2023-07-31T13:40:48;13.55;;;3.42;;
33413;SDS011;60055;41.884;12.534;2023-07-31T13:43:13;13.02;;;3.53;;
33413;SDS011;60055;41.884;12.534;2023-07-31T13:45:39;9.02;;;3.40;;
33413;SDS011;60055;41.884;12.534;2023-07-31T13:48:05;13.15;;;3.45;;
33413;SDS011;60055;41.884;12.534;2023-07-31T13:50:30;11.60;;;3.53;;
33413;SDS011;60055;41.884;12.534;2023-07-31T13:52:56;11.43;;;3.83;;
33413;SDS011;60055;41.884;12.534;2023-07-31T13:55:21;13.57;;;3.60;;
33413;SDS011;60055;41.884;12.534;2023-07-31T13:57:47;14.40;;;3.55;;
33413;SDS011;60055;41.884;12.534;2023-07-31T14:00:13;10.07;;;3.22;;
33413;SDS011;60055;41.884;12.534;2023-07-31T14:02:39;12.90;;;3.85;;
33413;SDS011;60055;41.884;12.534;2023-07-31T14:05:04;12.00;;;3.47;;
33413;SDS011;60055;41.884;12.534;2023-07-31T14:07:31;10.70;;;3.28;;
33413;SDS011;60055;41.884;12.534;2023-07-31T14:09:57;15.52;;;3.92;;
33413;SDS011;60055;41.884;12.534;2023-07-31T14:12:22;12.50;;;3.33;;
33413;SDS011;60055;41.884;12.534;2023-07-31T14:14:48;12.88;;;3.67;;
33413;SDS011;60055;41.884;12.534;2023-07-31T14:17:13;9.40;;;3.10;;
33413;SDS011;60055;41.884;12.534;2023-07-31T14:19:39;14.65;;;3.70;;
33413;SDS011;60055;41.884;12.534;2023-07-31T14:22:04;9.60;;;3.30;;
33413;SDS011;60055;41.884;12.534;2023-07-31T14:24:30;12.77;;;3.00;;
33413;SDS011;60055;41.884;12.534;2023-07-31T14:26:55;14.30;;;3.53;;
33413;SDS011;60055;41.884;12.534;2023-07-31T14:29:21;14.30;;;3.60;;
33413;SDS011;60055;41.884;12.534;2023-07-31T14:31:46;11.20;;;3.15;;
33413;SDS011;60055;41.884;12.534;2023-07-31T14:34:11;12.38;;;3.72;;
33413;SDS011;60055;41.884;12.534;2023-07-31T14:36:37;10.55;;;3.58;;
33413;SDS011;60055;41.884;12.534;2023-07-31T14:39:03;9.00;;;3.63;;
33413;SDS011;60055;41.884;12.534;2023-07-31T14:41:28;15.27;;;3.70;;
33413;SDS011;60055;41.884;12.534;2023-07-31T14:43:53;10.05;;;2.92;;
33413;SDS011;60055;41.884;12.534;2023-07-31T14:46:19;9.70;;;3.28;;
33413;SDS011;60055;41.884;12.534;2023-07-31T14:48:44;15.63;;;3.50;;
33413;SDS011;60055;41.884;12.534;2023-07-31T14:51:10;11.20;;;3.60;;
33413;SDS011;60055;41.884;12.534;2023-07-31T14:53:35;8.85;;;3.08;;
33413;SDS011;60055;41.884;12.534;2023-07-31T14:56:01;10.52;;;3.40;;
33413;SDS011;60055;41.884;12.534;2023-07-31T14:58:26;10.80;;;3.38;;
33413;SDS011;60055;41.884;12.534;2023-07-31T15:00:51;8.65;;;2.70;;
33413;SDS011;60055;41.884;12.534;2023-07-31T15:03:17;10.27;;;3.50;;